sensor_id;sensor_type;location;lat;lon;timestamp;P1;durP1;ratioP1;P2;durP2;ratioP2
25721;SDS011;13578;53.450;15.496;2023-02-16T00:02:57;91.20;;;36.60;;
25721;SDS011;13578;53.450;15.496;2023-02-16T00:05:58;75.25;;;32.97;;
25721;SDS011;13578;53.450;15.496;2023-02-16T00:08:58;83.70;;;32.00;;
25721;SDS011;13578;53.450;15.496;2023-02-16T00:11:59;83.80;;;34.92;;
25721;SDS011;13578;53.450;15.496;2023-02-16T00:15:18;80.65;;;33.25;;
25721;SDS011;13578;53.450;15.496;2023-02-16T00:18:20;86.05;;;35.60;;
25721;SDS011;13578;53.450;15.496;2023-02-16T00:21:21;81.38;;;33.50;;
25721;SDS011;13578;53.450;15.496;2023-02-16T00:24:22;88.13;;;37.17;;
25721;SDS011;13578;53.450;15.496;2023-02-16T00:27:23;96.60;;;35.17;;
25721;SDS011;13578;53.450;15.496;2023-02-16T00:30:24;94.10;;;34.90;;
25721;SDS011;13578;53.450;15.496;2023-02-16T00:33:24;84.13;;;34.15;;
25721;SDS011;13578;53.450;15.496;2023-02-16T00:36:25;76.10;;;29.75;;
25721;SDS011;13578;53.450;15.496;2023-02-16T00:39:25;79.05;;;33.20;;
25721;SDS011;13578;53.450;15.496;2023-02-16T00:42:27;73.00;;;31.20;;
25721;SDS011;13578;53.450;15.496;2023-02-16T00:45:35;81.13;;;31.90;;
25721;SDS011;13578;53.450;15.496;2023-02-16T00:48:36;83.10;;;34.58;;
25721;SDS011;13578;53.450;15.496;2023-02-16T00:51:37;77.75;;;31.98;;
25721;SDS011;13578;53.450;15.496;2023-02-16T00:54:38;87.80;;;34.53;;
25721;SDS011;13578;53.450;15.496;2023-02-16T00:57:40;88.22;;;34.58;;
25721;SDS011;13578;53.450;15.496;2023-02-16T01:00:48;81.40;;;34.38;;
25721;SDS011;13578;53.450;15.496;2023-02-16T01:03:51;98.32;;;37.22;;
25721;SDS011;13578;53.450;15.496;2023-02-16T01:06:52;93.03;;;36.65;;
25721;SDS011;13578;53.450;15.496;2023-02-16T01:10:11;75.18;;;33.40;;
25721;SDS011;13578;53.450;15.496;2023-02-16T01:13:30;76.40;;;31.15;;
25721;SDS011;13578;53.450;15.496;2023-02-16T01:16:35;74.03;;;33.47;;
25721;SDS011;13578;53.450;15.496;2023-02-16T01:19:37;93.38;;;34.08;;
25721;SDS011;13578;53.450;15.496;2023-02-16T01:22:38;84.80;;;34.88;;
25721;SDS011;13578;53.450;15.496;2023-02-16T01:25:39;84.25;;;33.88;;
25721;SDS011;13578;53.450;15.496;2023-02-16T01:28:40;88.32;;;35.83;;
25721;SDS011;13578;53.450;15.496;2023-02-16T01:31:42;84.70;;;34.00;;
25721;SDS011;13578;53.450;15.496;2023-02-16T01:34:43;79.97;;;33.05;;
25721;SDS011;13578;53.450;15.496;2023-02-16T01:37:44;76.25;;;31.92;;
25721;SDS011;13578;53.450;15.496;2023-02-16T01:44:41;89.53;;;37.33;;
25721;SDS011;13578;53.450;15.496;2023-02-16T01:47:51;74.88;;;32.25;;
25721;SDS011;13578;53.450;15.496;2023-02-16T01:51:03;86.65;;;34.42;;
25721;SDS011;13578;53.450;15.496;2023-02-16T01:57:36;84.05;;;33.30;;
25721;SDS011;13578;53.450;15.496;2023-02-16T02:03:52;92.20;;;35.33;;
25721;SDS011;13578;53.450;15.496;2023-02-16T02:07:24;85.38;;;34.42;;
25721;SDS011;13578;53.450;15.496;2023-02-16T02:10:39;98.50;;;35.88;;
25721;SDS011;13578;53.450;15.496;2023-02-16T02:17:10;92.20;;;36.47;;
25721;SDS011;13578;53.450;15.496;2023-02-16T02:31:00;91.47;;;36.97;;
25721;SDS011;13578;53.450;15.496;2023-02-16T02:44:09;103.57;;;39.20;;
25721;SDS011;13578;53.450;15.496;2023-02-16T02:47:14;105.50;;;37.78;;
25721;SDS011;13578;53.450;15.496;2023-02-16T02:50:21;99.38;;;38.33;;
25721;SDS011;13578;53.450;15.496;2023-02-16T02:53:39;85.03;;;35.30;;
25721;SDS011;13578;53.450;15.496;2023-02-16T02:56:45;97.18;;;37.60;;
25721;SDS011;13578;53.450;15.496;2023-02-16T03:03:30;97.60;;;36.55;;
25721;SDS011;13578;53.450;15.496;2023-02-16T03:06:38;81.18;;;36.00;;
25721;SDS011;13578;53.450;15.496;2023-02-16T03:09:42;96.03;;;35.20;;
25721;SDS011;13578;53.450;15.496;2023-02-16T03:12:43;93.97;;;36.88;;
25721;SDS011;13578;53.450;15.496;2023-02-16T03:15:45;91.40;;;36.22;;
25721;SDS011;13578;53.450;15.496;2023-02-16T03:18:49;91.38;;;36.03;;
25721;SDS011;13578;53.450;15.496;2023-02-16T03:22:08;101.72;;;37.17;;
25721;SDS011;13578;53.450;15.496;2023-02-16T03:25:31;88.70;;;36.35;;
25721;SDS011;13578;53.450;15.496;2023-02-16T03:28:53;93.30;;;35.75;;
25721;SDS011;13578;53.450;15.496;2023-02-16T03:32:14;96.50;;;37.03;;
25721;SDS011;13578;53.450;15.496;2023-02-16T03:35:15;101.50;;;38.50;;
25721;SDS011;13578;53.450;15.496;2023-02-16T03:38:16;91.50;;;37.75;;
25721;SDS011;13578;53.450;15.496;2023-02-16T03:41:16;88.13;;;35.70;;
25721;SDS011;13578;53.450;15.496;2023-02-16T03:44:17;97.32;;;36.55;;
25721;SDS011;13578;53.450;15.496;2023-02-16T03:47:18;89.72;;;33.75;;
25721;SDS011;13578;53.450;15.496;2023-02-16T03:50:19;91.47;;;35.72;;
25721;SDS011;13578;53.450;15.496;2023-02-16T03:53:20;97.00;;;36.30;;
25721;SDS011;13578;53.450;15.496;2023-02-16T03:56:21;92.38;;;37.03;;
25721;SDS011;13578;53.450;15.496;2023-02-16T03:59:21;92.78;;;36.05;;
25721;SDS011;13578;53.450;15.496;2023-02-16T04:02:22;88.10;;;35.53;;
25721;SDS011;13578;53.450;15.496;2023-02-16T04:05:23;102.13;;;36.90;;
25721;SDS011;13578;53.450;15.496;2023-02-16T04:08:23;99.53;;;38.85;;
25721;SDS011;13578;53.450;15.496;2023-02-16T04:11:24;77.55;;;33.60;;
25721;SDS011;13578;53.450;15.496;2023-02-16T04:14:43;80.45;;;33.38;;
25721;SDS011;13578;53.450;15.496;2023-02-16T04:17:44;82.25;;;33.80;;
25721;SDS011;13578;53.450;15.496;2023-02-16T04:20:45;78.47;;;33.58;;
25721;SDS011;13578;53.450;15.496;2023-02-16T04:23:45;89.85;;;36.15;;
25721;SDS011;13578;53.450;15.496;2023-02-16T04:26:46;89.32;;;34.53;;
25721;SDS011;13578;53.450;15.496;2023-02-16T04:29:48;94.05;;;36.85;;
25721;SDS011;13578;53.450;15.496;2023-02-16T04:32:49;76.32;;;31.83;;
25721;SDS011;13578;53.450;15.496;2023-02-16T04:35:50;89.60;;;36.78;;
25721;SDS011;13578;53.450;15.496;2023-02-16T04:38:51;81.38;;;33.08;;
25721;SDS011;13578;53.450;15.496;2023-02-16T04:41:51;74.80;;;32.72;;
25721;SDS011;13578;53.450;15.496;2023-02-16T04:44:52;91.60;;;38.00;;
25721;SDS011;13578;53.450;15.496;2023-02-16T04:47:52;84.65;;;35.83;;
25721;SDS011;13578;53.450;15.496;2023-02-16T04:50:54;82.65;;;35.03;;
25721;SDS011;13578;53.450;15.496;2023-02-16T04:53:55;84.05;;;34.40;;
25721;SDS011;13578;53.450;15.496;2023-02-16T04:56:56;87.10;;;33.50;;
25721;SDS011;13578;53.450;15.496;2023-02-16T04:59:56;82.32;;;35.05;;
25721;SDS011;13578;53.450;15.496;2023-02-16T05:02:57;80.45;;;32.40;;
25721;SDS011;13578;53.450;15.496;2023-02-16T05:05:58;84.57;;;33.72;;
25721;SDS011;13578;53.450;15.496;2023-02-16T05:08:59;84.22;;;32.05;;
25721;SDS011;13578;53.450;15.496;2023-02-16T05:11:59;74.78;;;32.22;;
25721;SDS011;13578;53.450;15.496;2023-02-16T05:15:19;70.75;;;31.70;;
25721;SDS011;13578;53.450;15.496;2023-02-16T05:18:19;66.45;;;30.50;;
25721;SDS011;13578;53.450;15.496;2023-02-16T05:21:20;142.98;;;33.35;;
25721;SDS011;13578;53.450;15.496;2023-02-16T05:24:30;73.00;;;32.75;;
25721;SDS011;13578;53.450;15.496;2023-02-16T05:27:30;237.70;;;33.90;;
25721;SDS011;13578;53.450;15.496;2023-02-16T05:30:32;69.50;;;29.35;;
25721;SDS011;13578;53.450;15.496;2023-02-16T05:33:33;82.43;;;27.65;;
25721;SDS011;13578;53.450;15.496;2023-02-16T05:36:33;66.57;;;29.27;;
25721;SDS011;13578;53.450;15.496;2023-02-16T05:39:34;70.82;;;27.98;;
25721;SDS011;13578;53.450;15.496;2023-02-16T05:42:35;64.15;;;29.58;;
25721;SDS011;13578;53.450;15.496;2023-02-16T05:45:37;56.30;;;25.20;;
25721;SDS011;13578;53.450;15.496;2023-02-16T05:48:38;92.00;;;35.35;;
25721;SDS011;13578;53.450;15.496;2023-02-16T05:51:38;70.15;;;30.15;;
25721;SDS011;13578;53.450;15.496;2023-02-16T05:54:39;64.97;;;29.42;;
25721;SDS011;13578;53.450;15.496;2023-02-16T05:57:39;81.63;;;31.17;;
25721;SDS011;13578;53.450;15.496;2023-02-16T06:00:40;87.47;;;34.28;;
25721;SDS011;13578;53.450;15.496;2023-02-16T06:03:40;77.30;;;33.22;;
25721;SDS011;13578;53.450;15.496;2023-02-16T06:06:42;79.45;;;30.33;;
25721;SDS011;13578;53.450;15.496;2023-02-16T06:09:43;71.57;;;30.67;;
25721;SDS011;13578;53.450;15.496;2023-02-16T06:12:43;74.97;;;31.05;;
25721;SDS011;13578;53.450;15.496;2023-02-16T06:15:44;74.22;;;28.90;;
25721;SDS011;13578;53.450;15.496;2023-02-16T06:18:46;73.18;;;31.25;;
25721;SDS011;13578;53.450;15.496;2023-02-16T06:21:47;72.55;;;29.77;;
25721;SDS011;13578;53.450;15.496;2023-02-16T06:24:48;63.40;;;29.25;;
25721;SDS011;13578;53.450;15.496;2023-02-16T06:27:49;74.50;;;29.55;;
25721;SDS011;13578;53.450;15.496;2023-02-16T06:30:51;76.13;;;29.88;;
25721;SDS011;13578;53.450;15.496;2023-02-16T06:33:52;70.00;;;29.42;;
25721;SDS011;13578;53.450;15.496;2023-02-16T06:36:55;77.47;;;30.75;;
25721;SDS011;13578;53.450;15.496;2023-02-16T06:39:56;70.82;;;32.42;;
25721;SDS011;13578;53.450;15.496;2023-02-16T06:42:57;65.28;;;27.45;;
25721;SDS011;13578;53.450;15.496;2023-02-16T06:45:57;66.70;;;29.58;;
25721;SDS011;13578;53.450;15.496;2023-02-16T06:48:58;68.85;;;28.85;;
25721;SDS011;13578;53.450;15.496;2023-02-16T06:51:59;68.60;;;27.08;;
25721;SDS011;13578;53.450;15.496;2023-02-16T06:55:00;65.75;;;27.90;;
25721;SDS011;13578;53.450;15.496;2023-02-16T06:58:03;65.75;;;28.50;;
25721;SDS011;13578;53.450;15.496;2023-02-16T07:01:05;64.88;;;28.88;;
25721;SDS011;13578;53.450;15.496;2023-02-16T07:04:05;72.30;;;27.95;;
25721;SDS011;13578;53.450;15.496;2023-02-16T07:07:06;84.45;;;31.23;;
25721;SDS011;13578;53.450;15.496;2023-02-16T07:10:07;73.47;;;29.67;;
25721;SDS011;13578;53.450;15.496;2023-02-16T07:13:08;74.75;;;31.10;;
25721;SDS011;13578;53.450;15.496;2023-02-16T07:16:09;67.72;;;30.08;;
25721;SDS011;13578;53.450;15.496;2023-02-16T07:19:10;67.07;;;28.98;;
25721;SDS011;13578;53.450;15.496;2023-02-16T07:22:10;72.05;;;28.67;;
25721;SDS011;13578;53.450;15.496;2023-02-16T07:25:11;71.40;;;30.13;;
25721;SDS011;13578;53.450;15.496;2023-02-16T07:28:12;76.97;;;29.65;;
25721;SDS011;13578;53.450;15.496;2023-02-16T07:31:14;75.65;;;31.80;;
25721;SDS011;13578;53.450;15.496;2023-02-16T07:34:15;74.65;;;29.52;;
25721;SDS011;13578;53.450;15.496;2023-02-16T07:37:15;80.22;;;31.75;;
25721;SDS011;13578;53.450;15.496;2023-02-16T07:40:16;66.50;;;29.42;;
25721;SDS011;13578;53.450;15.496;2023-02-16T07:43:17;85.13;;;31.67;;
25721;SDS011;13578;53.450;15.496;2023-02-16T07:46:17;69.60;;;31.23;;
25721;SDS011;13578;53.450;15.496;2023-02-16T07:49:18;84.22;;;33.88;;
25721;SDS011;13578;53.450;15.496;2023-02-16T07:52:19;76.10;;;32.08;;
25721;SDS011;13578;53.450;15.496;2023-02-16T07:55:20;88.22;;;33.78;;
25721;SDS011;13578;53.450;15.496;2023-02-16T07:58:20;78.47;;;33.22;;
25721;SDS011;13578;53.450;15.496;2023-02-16T08:01:27;74.60;;;32.30;;
25721;SDS011;13578;53.450;15.496;2023-02-16T08:04:29;82.10;;;33.35;;
25721;SDS011;13578;53.450;15.496;2023-02-16T08:07:29;78.80;;;31.70;;
25721;SDS011;13578;53.450;15.496;2023-02-16T08:10:30;81.13;;;31.85;;
25721;SDS011;13578;53.450;15.496;2023-02-16T08:13:30;83.00;;;31.95;;
25721;SDS011;13578;53.450;15.496;2023-02-16T08:16:31;77.55;;;32.03;;
25721;SDS011;13578;53.450;15.496;2023-02-16T08:19:32;77.68;;;31.75;;
25721;SDS011;13578;53.450;15.496;2023-02-16T08:22:34;81.72;;;32.00;;
25721;SDS011;13578;53.450;15.496;2023-02-16T08:25:35;69.47;;;31.77;;
25721;SDS011;13578;53.450;15.496;2023-02-16T08:28:36;80.13;;;31.20;;
25721;SDS011;13578;53.450;15.496;2023-02-16T08:31:38;80.90;;;31.42;;
25721;SDS011;13578;53.450;15.496;2023-02-16T08:34:39;73.28;;;31.40;;
25721;SDS011;13578;53.450;15.496;2023-02-16T08:37:39;70.90;;;31.27;;
25721;SDS011;13578;53.450;15.496;2023-02-16T08:40:46;80.45;;;32.85;;
25721;SDS011;13578;53.450;15.496;2023-02-16T08:43:47;69.50;;;31.25;;
25721;SDS011;13578;53.450;15.496;2023-02-16T08:46:49;71.75;;;31.13;;
25721;SDS011;13578;53.450;15.496;2023-02-16T08:49:51;72.05;;;31.08;;
25721;SDS011;13578;53.450;15.496;2023-02-16T08:52:51;81.78;;;32.92;;
25721;SDS011;13578;53.450;15.496;2023-02-16T08:55:53;81.20;;;32.30;;
25721;SDS011;13578;53.450;15.496;2023-02-16T08:58:55;85.50;;;32.83;;
25721;SDS011;13578;53.450;15.496;2023-02-16T09:01:56;73.35;;;31.55;;
25721;SDS011;13578;53.450;15.496;2023-02-16T09:04:58;71.70;;;32.60;;
25721;SDS011;13578;53.450;15.496;2023-02-16T09:07:59;74.60;;;32.30;;
25721;SDS011;13578;53.450;15.496;2023-02-16T09:11:00;73.75;;;33.03;;
25721;SDS011;13578;53.450;15.496;2023-02-16T09:14:02;73.43;;;32.08;;
25721;SDS011;13578;53.450;15.496;2023-02-16T09:17:03;82.82;;;32.72;;
25721;SDS011;13578;53.450;15.496;2023-02-16T09:20:04;72.50;;;32.35;;
25721;SDS011;13578;53.450;15.496;2023-02-16T09:23:06;72.43;;;32.63;;
25721;SDS011;13578;53.450;15.496;2023-02-16T09:26:09;79.75;;;30.70;;
25721;SDS011;13578;53.450;15.496;2023-02-16T09:29:10;70.30;;;32.88;;
25721;SDS011;13578;53.450;15.496;2023-02-16T09:32:11;71.13;;;31.27;;
25721;SDS011;13578;53.450;15.496;2023-02-16T09:35:12;76.05;;;32.95;;
25721;SDS011;13578;53.450;15.496;2023-02-16T09:38:13;76.70;;;32.03;;
25721;SDS011;13578;53.450;15.496;2023-02-16T09:41:34;68.97;;;31.65;;
25721;SDS011;13578;53.450;15.496;2023-02-16T09:48:00;81.85;;;33.50;;
25721;SDS011;13578;53.450;15.496;2023-02-16T09:51:02;64.65;;;30.33;;
25721;SDS011;13578;53.450;15.496;2023-02-16T09:54:31;69.75;;;31.67;;
25721;SDS011;13578;53.450;15.496;2023-02-16T10:11:10;66.22;;;31.85;;
25721;SDS011;13578;53.450;15.496;2023-02-16T10:17:48;72.15;;;31.58;;
25721;SDS011;13578;53.450;15.496;2023-02-16T10:20:54;57.45;;;27.25;;
25721;SDS011;13578;53.450;15.496;2023-02-16T10:24:00;82.53;;;35.47;;
25721;SDS011;13578;53.450;15.496;2023-02-16T10:27:06;72.45;;;33.42;;
25721;SDS011;13578;53.450;15.496;2023-02-16T10:36:27;84.85;;;36.17;;
25721;SDS011;13578;53.450;15.496;2023-02-16T10:47:00;74.18;;;34.88;;
25721;SDS011;13578;53.450;15.496;2023-02-16T10:50:05;76.68;;;34.10;;
25721;SDS011;13578;53.450;15.496;2023-02-16T10:53:17;83.05;;;36.28;;
25721;SDS011;13578;53.450;15.496;2023-02-16T10:59:36;75.70;;;35.72;;
25721;SDS011;13578;53.450;15.496;2023-02-16T11:02:40;76.88;;;34.90;;
25721;SDS011;13578;53.450;15.496;2023-02-16T11:05:43;77.28;;;33.42;;
25721;SDS011;13578;53.450;15.496;2023-02-16T11:08:47;69.63;;;33.28;;
25721;SDS011;13578;53.450;15.496;2023-02-16T11:11:51;72.03;;;34.30;;
25721;SDS011;13578;53.450;15.496;2023-02-16T11:14:53;76.75;;;34.08;;
25721;SDS011;13578;53.450;15.496;2023-02-16T11:17:58;77.20;;;34.92;;
25721;SDS011;13578;53.450;15.496;2023-02-16T11:21:04;69.70;;;33.00;;
25721;SDS011;13578;53.450;15.496;2023-02-16T11:24:08;77.00;;;32.90;;
25721;SDS011;13578;53.450;15.496;2023-02-16T11:30:13;71.22;;;34.55;;
25721;SDS011;13578;53.450;15.496;2023-02-16T11:33:22;71.00;;;32.78;;
25721;SDS011;13578;53.450;15.496;2023-02-16T11:36:30;61.38;;;30.55;;
25721;SDS011;13578;53.450;15.496;2023-02-16T11:39:33;74.70;;;32.78;;
25721;SDS011;13578;53.450;15.496;2023-02-16T11:42:38;70.40;;;31.30;;
25721;SDS011;13578;53.450;15.496;2023-02-16T11:45:44;60.20;;;30.42;;
25721;SDS011;13578;53.450;15.496;2023-02-16T11:49:16;72.90;;;30.95;;
25721;SDS011;13578;53.450;15.496;2023-02-16T11:52:28;62.97;;;29.60;;
25721;SDS011;13578;53.450;15.496;2023-02-16T11:55:31;67.85;;;31.13;;
25721;SDS011;13578;53.450;15.496;2023-02-16T11:58:32;67.38;;;30.23;;
25721;SDS011;13578;53.450;15.496;2023-02-16T12:01:38;55.50;;;29.05;;
25721;SDS011;13578;53.450;15.496;2023-02-16T12:08:01;53.72;;;28.33;;
25721;SDS011;13578;53.450;15.496;2023-02-16T12:18:42;57.80;;;26.80;;
25721;SDS011;13578;53.450;15.496;2023-02-16T12:22:17;63.90;;;27.30;;
25721;SDS011;13578;53.450;15.496;2023-02-16T12:32:23;52.83;;;26.55;;
25721;SDS011;13578;53.450;15.496;2023-02-16T12:45:30;55.72;;;26.70;;
25721;SDS011;13578;53.450;15.496;2023-02-16T12:48:36;55.63;;;26.10;;
25721;SDS011;13578;53.450;15.496;2023-02-16T12:51:46;62.58;;;28.02;;
25721;SDS011;13578;53.450;15.496;2023-02-16T12:54:51;55.35;;;25.23;;
25721;SDS011;13578;53.450;15.496;2023-02-16T12:58:16;53.20;;;24.90;;
25721;SDS011;13578;53.450;15.496;2023-02-16T13:01:23;57.70;;;28.27;;
25721;SDS011;13578;53.450;15.496;2023-02-16T13:04:49;59.67;;;26.27;;
25721;SDS011;13578;53.450;15.496;2023-02-16T13:07:51;61.33;;;27.25;;
25721;SDS011;13578;53.450;15.496;2023-02-16T13:11:19;69.85;;;26.20;;
25721;SDS011;13578;53.450;15.496;2023-02-16T13:14:28;51.85;;;23.77;;
25721;SDS011;13578;53.450;15.496;2023-02-16T13:17:37;60.80;;;26.00;;
25721;SDS011;13578;53.450;15.496;2023-02-16T13:20:43;61.70;;;28.17;;
25721;SDS011;13578;53.450;15.496;2023-02-16T13:26:59;60.88;;;27.50;;
25721;SDS011;13578;53.450;15.496;2023-02-16T13:30:33;55.25;;;25.50;;
25721;SDS011;13578;53.450;15.496;2023-02-16T13:40:56;60.80;;;28.27;;
25721;SDS011;13578;53.450;15.496;2023-02-16T13:43:35;52.38;;;25.77;;
25721;SDS011;13578;53.450;15.496;2023-02-16T13:46:43;57.78;;;28.58;;
25721;SDS011;13578;53.450;15.496;2023-02-16T13:49:49;49.25;;;26.02;;
25721;SDS011;13578;53.450;15.496;2023-02-16T13:52:57;54.65;;;25.67;;
25721;SDS011;13578;53.450;15.496;2023-02-16T14:05:52;52.95;;;25.70;;
25721;SDS011;13578;53.450;15.496;2023-02-16T14:15:19;53.58;;;25.75;;
25721;SDS011;13578;53.450;15.496;2023-02-16T14:18:31;56.33;;;24.88;;
25721;SDS011;13578;53.450;15.496;2023-02-16T14:21:41;62.15;;;25.00;;
25721;SDS011;13578;53.450;15.496;2023-02-16T14:24:50;54.38;;;25.88;;
25721;SDS011;13578;53.450;15.496;2023-02-16T14:31:02;52.60;;;26.02;;
25721;SDS011;13578;53.450;15.496;2023-02-16T14:34:33;63.40;;;27.70;;
25721;SDS011;13578;53.450;15.496;2023-02-16T14:37:38;47.50;;;24.52;;
25721;SDS011;13578;53.450;15.496;2023-02-16T14:50:55;52.72;;;24.40;;
25721;SDS011;13578;53.450;15.496;2023-02-16T14:57:47;53.70;;;24.15;;
25721;SDS011;13578;53.450;15.496;2023-02-16T15:00:51;50.35;;;23.73;;
25721;SDS011;13578;53.450;15.496;2023-02-16T15:03:55;52.70;;;24.45;;
25721;SDS011;13578;53.450;15.496;2023-02-16T15:06:57;53.92;;;26.52;;
25721;SDS011;13578;53.450;15.496;2023-02-16T15:10:02;62.42;;;27.38;;
25721;SDS011;13578;53.450;15.496;2023-02-16T15:13:03;55.38;;;27.08;;
25721;SDS011;13578;53.450;15.496;2023-02-16T15:16:05;54.60;;;25.95;;
25721;SDS011;13578;53.450;15.496;2023-02-16T15:19:10;48.80;;;26.60;;
25721;SDS011;13578;53.450;15.496;2023-02-16T15:22:20;49.03;;;24.13;;
25721;SDS011;13578;53.450;15.496;2023-02-16T15:25:50;57.05;;;26.58;;
25721;SDS011;13578;53.450;15.496;2023-02-16T15:28:52;56.35;;;26.15;;
25721;SDS011;13578;53.450;15.496;2023-02-16T15:31:57;53.88;;;26.08;;
25721;SDS011;13578;53.450;15.496;2023-02-16T15:35:07;53.88;;;26.77;;
25721;SDS011;13578;53.450;15.496;2023-02-16T15:38:26;50.33;;;25.55;;
25721;SDS011;13578;53.450;15.496;2023-02-16T15:41:38;54.05;;;25.85;;
25721;SDS011;13578;53.450;15.496;2023-02-16T15:44:41;59.30;;;26.73;;
25721;SDS011;13578;53.450;15.496;2023-02-16T15:47:43;60.78;;;28.33;;
25721;SDS011;13578;53.450;15.496;2023-02-16T15:50:43;58.33;;;25.88;;
25721;SDS011;13578;53.450;15.496;2023-02-16T15:56:55;62.70;;;27.63;;
25721;SDS011;13578;53.450;15.496;2023-02-16T15:59:59;55.60;;;27.98;;
25721;SDS011;13578;53.450;15.496;2023-02-16T16:03:04;59.55;;;27.60;;
25721;SDS011;13578;53.450;15.496;2023-02-16T16:06:08;53.22;;;27.88;;
25721;SDS011;13578;53.450;15.496;2023-02-16T16:09:16;68.78;;;29.30;;
25721;SDS011;13578;53.450;15.496;2023-02-16T16:12:22;61.53;;;28.23;;
25721;SDS011;13578;53.450;15.496;2023-02-16T16:15:25;48.22;;;24.90;;
25721;SDS011;13578;53.450;15.496;2023-02-16T16:18:38;63.55;;;27.58;;
25721;SDS011;13578;53.450;15.496;2023-02-16T16:21:46;56.70;;;28.17;;
25721;SDS011;13578;53.450;15.496;2023-02-16T16:24:54;56.65;;;26.85;;
25721;SDS011;13578;53.450;15.496;2023-02-16T16:27:55;55.03;;;26.85;;
25721;SDS011;13578;53.450;15.496;2023-02-16T16:31:10;62.03;;;28.23;;
25721;SDS011;13578;53.450;15.496;2023-02-16T16:34:29;59.17;;;28.03;;
25721;SDS011;13578;53.450;15.496;2023-02-16T16:37:33;58.88;;;28.42;;
25721;SDS011;13578;53.450;15.496;2023-02-16T16:40:36;51.63;;;27.67;;
25721;SDS011;13578;53.450;15.496;2023-02-16T16:43:38;57.53;;;27.60;;
25721;SDS011;13578;53.450;15.496;2023-02-16T16:46:55;62.78;;;30.10;;
25721;SDS011;13578;53.450;15.496;2023-02-16T16:49:57;67.45;;;29.40;;
25721;SDS011;13578;53.450;15.496;2023-02-16T16:56:29;53.90;;;27.10;;
25721;SDS011;13578;53.450;15.496;2023-02-16T16:59:34;60.25;;;28.20;;
25721;SDS011;13578;53.450;15.496;2023-02-16T17:02:36;57.22;;;25.88;;
25721;SDS011;13578;53.450;15.496;2023-02-16T17:05:36;56.00;;;27.75;;
25721;SDS011;13578;53.450;15.496;2023-02-16T17:08:39;59.45;;;28.45;;
25721;SDS011;13578;53.450;15.496;2023-02-16T17:11:40;64.38;;;29.55;;
25721;SDS011;13578;53.450;15.496;2023-02-16T17:14:41;59.42;;;28.80;;
25721;SDS011;13578;53.450;15.496;2023-02-16T17:17:42;60.88;;;29.65;;
25721;SDS011;13578;53.450;15.496;2023-02-16T17:20:43;61.85;;;29.80;;
25721;SDS011;13578;53.450;15.496;2023-02-16T17:23:44;57.20;;;27.25;;
25721;SDS011;13578;53.450;15.496;2023-02-16T17:26:45;62.60;;;30.58;;
25721;SDS011;13578;53.450;15.496;2023-02-16T17:29:46;60.35;;;30.75;;
25721;SDS011;13578;53.450;15.496;2023-02-16T17:32:46;63.92;;;30.25;;
25721;SDS011;13578;53.450;15.496;2023-02-16T17:35:47;60.30;;;28.40;;
25721;SDS011;13578;53.450;15.496;2023-02-16T17:38:48;72.85;;;31.15;;
25721;SDS011;13578;53.450;15.496;2023-02-16T17:41:49;68.22;;;30.52;;
25721;SDS011;13578;53.450;15.496;2023-02-16T17:44:50;68.40;;;31.23;;
25721;SDS011;13578;53.450;15.496;2023-02-16T17:47:51;65.68;;;29.13;;
25721;SDS011;13578;53.450;15.496;2023-02-16T17:50:55;65.60;;;30.25;;
25721;SDS011;13578;53.450;15.496;2023-02-16T17:53:58;63.78;;;28.92;;
25721;SDS011;13578;53.450;15.496;2023-02-16T17:56:59;70.28;;;31.42;;
25721;SDS011;13578;53.450;15.496;2023-02-16T18:00:00;68.68;;;30.35;;
25721;SDS011;13578;53.450;15.496;2023-02-16T18:03:01;64.10;;;29.08;;
25721;SDS011;13578;53.450;15.496;2023-02-16T18:06:01;54.47;;;27.30;;
25721;SDS011;13578;53.450;15.496;2023-02-16T18:09:02;62.83;;;28.42;;
25721;SDS011;13578;53.450;15.496;2023-02-16T18:12:03;60.95;;;28.65;;
25721;SDS011;13578;53.450;15.496;2023-02-16T18:15:04;64.40;;;31.42;;
25721;SDS011;13578;53.450;15.496;2023-02-16T18:18:05;64.80;;;28.60;;
25721;SDS011;13578;53.450;15.496;2023-02-16T18:21:06;69.72;;;29.25;;
25721;SDS011;13578;53.450;15.496;2023-02-16T18:24:06;65.85;;;30.48;;
25721;SDS011;13578;53.450;15.496;2023-02-16T18:27:07;70.28;;;30.00;;
25721;SDS011;13578;53.450;15.496;2023-02-16T18:30:09;63.97;;;30.80;;
25721;SDS011;13578;53.450;15.496;2023-02-16T18:33:11;68.95;;;28.98;;
25721;SDS011;13578;53.450;15.496;2023-02-16T18:36:11;59.42;;;30.70;;
25721;SDS011;13578;53.450;15.496;2023-02-16T18:39:12;62.40;;;28.55;;
25721;SDS011;13578;53.450;15.496;2023-02-16T18:42:13;53.95;;;27.88;;
25721;SDS011;13578;53.450;15.496;2023-02-16T18:45:13;55.92;;;27.02;;
25721;SDS011;13578;53.450;15.496;2023-02-16T18:48:14;60.67;;;26.90;;
25721;SDS011;13578;53.450;15.496;2023-02-16T18:51:15;61.92;;;29.00;;
25721;SDS011;13578;53.450;15.496;2023-02-16T18:54:16;65.75;;;27.10;;
25721;SDS011;13578;53.450;15.496;2023-02-16T18:57:17;61.78;;;28.77;;
25721;SDS011;13578;53.450;15.496;2023-02-16T19:00:18;72.60;;;29.85;;
25721;SDS011;13578;53.450;15.496;2023-02-16T19:03:20;58.33;;;28.67;;
25721;SDS011;13578;53.450;15.496;2023-02-16T19:06:21;60.80;;;27.42;;
25721;SDS011;13578;53.450;15.496;2023-02-16T19:09:22;53.97;;;26.85;;
25721;SDS011;13578;53.450;15.496;2023-02-16T19:12:24;62.95;;;28.73;;
25721;SDS011;13578;53.450;15.496;2023-02-16T19:15:25;59.80;;;30.45;;
25721;SDS011;13578;53.450;15.496;2023-02-16T19:18:26;69.15;;;29.80;;
25721;SDS011;13578;53.450;15.496;2023-02-16T19:21:28;64.30;;;29.90;;
25721;SDS011;13578;53.450;15.496;2023-02-16T19:24:28;56.83;;;28.80;;
25721;SDS011;13578;53.450;15.496;2023-02-16T19:27:30;68.38;;;31.60;;
25721;SDS011;13578;53.450;15.496;2023-02-16T19:30:30;58.25;;;28.48;;
25721;SDS011;13578;53.450;15.496;2023-02-16T19:33:31;54.92;;;27.48;;
25721;SDS011;13578;53.450;15.496;2023-02-16T19:36:32;66.20;;;29.98;;
25721;SDS011;13578;53.450;15.496;2023-02-16T19:39:33;66.30;;;29.08;;
25721;SDS011;13578;53.450;15.496;2023-02-16T19:42:35;65.25;;;29.73;;
25721;SDS011;13578;53.450;15.496;2023-02-16T19:45:36;65.22;;;30.90;;
25721;SDS011;13578;53.450;15.496;2023-02-16T19:48:40;63.28;;;29.85;;
25721;SDS011;13578;53.450;15.496;2023-02-16T19:51:41;66.40;;;29.33;;
25721;SDS011;13578;53.450;15.496;2023-02-16T19:54:42;61.47;;;29.33;;
25721;SDS011;13578;53.450;15.496;2023-02-16T19:57:43;68.28;;;28.00;;
25721;SDS011;13578;53.450;15.496;2023-02-16T20:00:44;60.80;;;28.95;;
25721;SDS011;13578;53.450;15.496;2023-02-16T20:03:45;57.55;;;27.25;;
25721;SDS011;13578;53.450;15.496;2023-02-16T20:06:46;59.40;;;29.42;;
25721;SDS011;13578;53.450;15.496;2023-02-16T20:09:48;60.70;;;29.27;;
25721;SDS011;13578;53.450;15.496;2023-02-16T20:12:48;61.95;;;27.08;;
25721;SDS011;13578;53.450;15.496;2023-02-16T20:15:49;72.30;;;28.95;;
25721;SDS011;13578;53.450;15.496;2023-02-16T20:18:50;62.17;;;27.60;;